Yenisei River — V7AU8 — position and weather

sailwx.info

Track history (hours):
 
Tides and Currents Weather Stations Pressure Air Temp Water Temp Dewpoint Dewpoint Depression Visibility Wind Speed Wind Dir Waves Ship Positions

Yenisei River

Last reported at 2017-Oct-23 14:27 UTC. Time now 2017-Nov-18 10:27 UTC.
Position N 29°29' W 093°40'.
Warning: this ship's position is 25 days out of date.

Length 288 m; draft 11.6 m.

Type: Ship. MMSI: 538005072.

Date/timePositionNaut miles runAvg speedWind from/ knotsBaromVisibWave heightAir tempDewpointWater temp
2017-Oct-23 14:27N 29°29' W 093°40'1012.7
2017-Oct-23 13:42N 29°36' W 093°48'212.0
2017-Oct-23 13:30N 29°38' W 093°49'510.2
2017-Oct-23 13:00N 29°42' W 093°51'  
2017-Oct-18 01:13N 25°29' W 079°36'517.5
2017-Oct-18 00:56N 25°34' W 079°36'817.5
2017-Oct-18 00:30N 25°41' W 079°36'917.4
2017-Oct-18 00:00N 25°50' W 079°35'917.2
2017-Oct-17 23:31N 25°57' W 079°30'1118.0
2017-Oct-17 22:52N 26°07' W 079°23'718.5
2017-Oct-17 22:30N 26°12' W 079°19'  
Track history (hours):
 
Tides and Currents Weather Stations Pressure Air Temp Water Temp Dewpoint Dewpoint Depression Visibility Wind Speed Wind Dir Waves Ship Positions

Yenisei River

Last reported at 2017-Oct-23 14:27 UTC. Time now 2017-Nov-18 10:27 UTC.
Position N 29°29' W 093°40'.
Warning: this ship's position is 25 days out of date.

Length 288 m; draft 11.6 m.

Type: Ship. MMSI: 538005072.

Date/timePositionNaut miles runAvg speedWind from/ knotsBaromVisibWave heightAir tempDewpointWater temp
2017-Oct-23 14:27N 29°29' W 093°40'1012.7
2017-Oct-23 13:42N 29°36' W 093°48'212.0
2017-Oct-23 13:30N 29°38' W 093°49'510.2
2017-Oct-23 13:00N 29°42' W 093°51'  
2017-Oct-18 01:13N 25°29' W 079°36'517.5
2017-Oct-18 00:56N 25°34' W 079°36'817.5
2017-Oct-18 00:30N 25°41' W 079°36'917.4
2017-Oct-18 00:00N 25°50' W 079°35'917.2
2017-Oct-17 23:31N 25°57' W 079°30'1118.0
2017-Oct-17 22:52N 26°07' W 079°23'718.5
2017-Oct-17 22:30N 26°12' W 079°19'  

Dump ship's entire track history